Aérodrome :
LOGIN :

S'inscrire | Disclaimer

   EN    FR    IT 

 










Légende :    VFR   VFR Marginal   IFR   IFR Intensif   IFR Très Intensif
Visi : 
Plafond : 
>= 8 km
>= 3000ft
5 à 8 km
1000 à 3000 ft
1500m à 5 km
500 à 1000 ft
800 à 1500m
200 à 500 ft
< 800m
< 200 ft
Symboles :   Orages  Brouillard  Fortes neiges  Fortes précipitations  Vent > 20 kt
SIGMETs :   Divers  Orages  Givrage  Turbulence  Onde Orograph.  Cendres Volcan.







- Altitude de l'aérodrome : 1036 ft
- Code IATA : ERF


EDDE - Erfurt

DERNIER METAR :
  • 231650Z 22007KT 9999 -RA FEW036 OVC050 09/07 Q1019 NOSIG

METARs EXPIRÉS :
  • 231620Z 24008KT 9999 -RA OVC044 09/07 Q1019 NOSIG
  • 231550Z 25011KT 9999 FEW023 BKN050 10/06 Q1018 NOSIG
  • 231520Z 25009KT 9999 FEW023 BKN050 10/06 Q1018 NOSIG
  • 231450Z 26012KT 9999 FEW023 BKN050 10/06 Q1018 NOSIG
  • 231420Z 26013KT 230V290 9999 SCT023 BKN060 11/06 Q1018 NOSIG

TAF TAF EDDE
Valide du 23 à 12h jusqu'au 24 à 12h UTC


231100Z 2312/2412 25013KT 9999 BKN030
TEMPO 2317/2322 4500 -RADZ BKN013
BECMG 2322/2401 24008KT
Pas de NOTAMs connus pour ce terrain.



MET'MAP, la Météo Aéronautique d'un coup d'oeil ! - Copyright ORBIFLY Décembre 2007 - Disclaimer

ORBIFLY MET'MAP TEAM :

Programmation & Développement : Alexandra Zaïnal
Conception & Développement : Baudouin d'Aumeries
Co-Programmation & Développement : Marc-Olivier Méhu
Soutien technique & logistique : Manuel Goepfert

Contact : metmap@orbifly.com




SOURCES & CREDITS :

   NOAA